createdAt,value
2023-01-17T00:00:40.037Z,95.91
2023-01-17T00:03:28.623Z,95.88
2023-01-17T00:06:29.554Z,95.83
2023-01-17T00:09:19.045Z,95.91
2023-01-17T00:11:50.902Z,96.12
2023-01-17T00:14:22.863Z,95.95
2023-01-17T00:16:54.931Z,96.06
2023-01-17T00:19:44.146Z,96.06
2023-01-17T00:22:41.390Z,96.11
2023-01-17T00:25:33.830Z,96.43
2023-01-17T00:28:05.312Z,96.47
2023-01-17T00:30:36.074Z,96.30
2023-01-17T00:33:06.860Z,96.54
2023-01-17T00:35:38.128Z,96.64
2023-01-17T00:38:10.624Z,96.53
2023-01-17T00:40:43.384Z,96.59
2023-01-17T00:43:33.961Z,96.40
2023-01-17T00:46:24.201Z,96.41
2023-01-17T00:49:13.635Z,96.39
2023-01-17T00:52:03.389Z,96.43
2023-01-17T00:54:52.785Z,96.44
2023-01-17T00:57:42.295Z,96.68
2023-01-17T01:00:33.246Z,97.01
2023-01-17T01:03:28.628Z,96.93
2023-01-17T01:06:17.897Z,97.02
2023-01-17T01:09:07.606Z,97.35
2023-01-17T01:11:57.089Z,97.59
2023-01-17T01:14:46.670Z,97.84
2023-01-17T01:17:36.239Z,97.75
2023-01-17T01:20:26.630Z,97.62
2023-01-17T01:23:15.946Z,97.70
2023-01-17T01:26:05.371Z,98.15
2023-01-17T01:28:54.446Z,97.86
2023-01-17T01:31:44.090Z,98.17
2023-01-17T01:34:16.008Z,98.33
2023-01-17T01:36:48.145Z,98.50
2023-01-17T01:39:19.965Z,98.27
2023-01-17T01:41:51.773Z,98.59
2023-01-17T01:44:45.283Z,98.47
2023-01-17T01:47:24.218Z,98.23
2023-01-17T01:49:56.066Z,98.66
2023-01-17T01:52:29.806Z,98.57
2023-01-17T01:55:04.006Z,98.26
2023-01-17T01:57:35.741Z,98.19
2023-01-17T02:00:14.127Z,98.29
2023-01-17T02:02:46.928Z,98.23
2023-01-17T02:05:20.763Z,98.49
2023-01-17T02:07:55.872Z,98.42
2023-01-17T02:10:27.655Z,98.18
2023-01-17T02:12:59.959Z,98.08
2023-01-17T02:15:37.190Z,97.98
2023-01-17T02:18:17.090Z,97.86
2023-01-17T02:21:03.599Z,97.96
2023-01-17T02:24:09.493Z,97.77
2023-01-17T02:26:53.945Z,97.73
2023-01-17T02:29:55.892Z,97.80
2023-01-17T02:32:34.917Z,97.79
2023-01-17T02:35:13.269Z,97.66
2023-01-17T02:37:50.208Z,97.67
2023-01-17T02:40:26.410Z,97.87
2023-01-17T02:43:02.957Z,98.03
2023-01-17T02:45:34.858Z,97.84
2023-01-17T02:48:08.217Z,97.74
2023-01-17T02:50:51.281Z,97.58
2023-01-17T02:53:33.170Z,97.68
2023-01-17T02:56:13.293Z,97.63
2023-01-17T02:58:58.567Z,97.73
2023-01-17T03:01:36.675Z,97.57
2023-01-17T03:04:12.699Z,97.53
2023-01-17T03:06:47.935Z,97.43
2023-01-17T03:09:20.160Z,97.36
2023-01-17T03:11:51.997Z,97.33
2023-01-17T03:14:23.847Z,97.21
2023-01-17T03:16:55.937Z,97.24
2023-01-17T03:19:28.175Z,97.30
2023-01-17T03:22:00.177Z,97.47
2023-01-17T03:24:32.251Z,97.11
2023-01-17T03:27:04.086Z,97.20
2023-01-17T03:29:35.999Z,97.15
2023-01-17T03:32:08.319Z,97.06
2023-01-17T03:34:40.351Z,97.12
2023-01-17T03:37:12.164Z,97.03
2023-01-17T03:39:43.967Z,96.97
2023-01-17T03:42:15.756Z,96.83
2023-01-17T03:44:47.668Z,96.82
2023-01-17T03:47:19.532Z,96.69
2023-01-17T03:49:52.250Z,96.76
2023-01-17T03:52:24.164Z,96.76
2023-01-17T03:54:56.495Z,96.66
2023-01-17T03:57:28.253Z,96.54
2023-01-17T04:00:00.354Z,96.53
2023-01-17T04:02:32.330Z,96.45
2023-01-17T04:05:04.498Z,96.57
2023-01-17T04:07:36.337Z,96.63
2023-01-17T04:10:10.598Z,96.46
2023-01-17T04:12:42.654Z,96.42
2023-01-17T04:15:14.775Z,96.31
2023-01-17T04:17:46.573Z,96.34
2023-01-17T04:20:19.983Z,96.27
2023-01-17T04:22:51.754Z,96.35
2023-01-17T04:25:23.652Z,96.14
2023-01-17T04:27:55.813Z,96.02
2023-01-17T04:30:28.638Z,96.02
2023-01-17T04:33:00.633Z,96.00
2023-01-17T04:35:34.481Z,95.92
2023-01-17T04:38:06.395Z,95.86
2023-01-17T04:40:38.264Z,95.68
2023-01-17T04:43:10.069Z,95.71
2023-01-17T04:45:42.833Z,95.60
2023-01-17T04:48:14.773Z,95.71
2023-01-17T04:50:46.831Z,95.53
2023-01-17T04:53:18.764Z,95.49
2023-01-17T04:55:50.868Z,95.49
2023-01-17T04:58:22.830Z,95.28
2023-01-17T05:00:55.056Z,95.25
2023-01-17T05:03:27.045Z,95.41
2023-01-17T05:05:58.861Z,95.31
2023-01-17T05:08:30.945Z,94.93
2023-01-17T05:11:02.855Z,95.01
2023-01-17T05:13:34.773Z,95.02
2023-01-17T05:16:07.155Z,95.07
2023-01-17T05:18:39.056Z,94.81
2023-01-17T05:21:10.862Z,94.68
2023-01-17T05:23:43.235Z,94.89
2023-01-17T05:26:15.911Z,94.78
2023-01-17T05:28:47.742Z,94.71
2023-01-17T05:31:20.117Z,94.60
2023-01-17T05:33:51.986Z,94.59
2023-01-17T05:36:23.847Z,94.66
2023-01-17T05:38:55.618Z,94.74
2023-01-17T05:41:27.509Z,94.63
2023-01-17T05:43:59.318Z,94.62
2023-01-17T05:46:31.326Z,94.49
2023-01-17T05:49:03.646Z,94.59
2023-01-17T05:51:37.925Z,94.79
2023-01-17T05:54:09.862Z,94.71
2023-01-17T05:56:41.858Z,94.55
2023-01-17T05:59:14.364Z,94.71
2023-01-17T06:01:46.483Z,94.57
2023-01-17T06:04:18.424Z,94.63
2023-01-17T06:06:50.286Z,94.61
2023-01-17T06:09:22.477Z,94.85
2023-01-17T06:11:54.342Z,94.64
2023-01-17T06:14:26.596Z,94.83
2023-01-17T06:16:58.397Z,94.85
2023-01-17T06:19:30.236Z,94.76
2023-01-17T06:22:02.060Z,94.82
2023-01-17T06:24:34.420Z,94.63
2023-01-17T06:27:06.504Z,94.78
2023-01-17T06:29:38.387Z,94.75
2023-01-17T06:32:10.644Z,94.79
2023-01-17T06:34:42.482Z,94.82
2023-01-17T06:37:14.506Z,94.71
2023-01-17T06:39:46.396Z,94.69
2023-01-17T06:42:18.521Z,94.71
2023-01-17T06:44:50.468Z,94.72
2023-01-17T06:47:22.372Z,94.57
2023-01-17T06:49:54.339Z,94.72
2023-01-17T06:52:26.272Z,95.02
2023-01-17T06:54:58.044Z,94.88
2023-01-17T06:57:30.034Z,95.02
2023-01-17T07:00:01.857Z,95.15
2023-01-17T07:02:34.206Z,95.00
2023-01-17T07:05:06.362Z,95.02
2023-01-17T07:07:38.299Z,94.97
2023-01-17T07:10:11.688Z,95.17
2023-01-17T07:12:44.000Z,94.95
2023-01-17T07:15:15.919Z,94.95
2023-01-17T07:17:48.661Z,94.85
2023-01-17T07:20:20.587Z,95.17
2023-01-17T07:22:52.452Z,95.15
2023-01-17T07:25:25.995Z,95.27
2023-01-17T07:27:58.837Z,95.25
2023-01-17T07:30:30.640Z,95.36
2023-01-17T07:33:02.621Z,95.39
2023-01-17T07:35:34.480Z,95.40
2023-01-17T07:38:11.478Z,95.42
2023-01-17T07:40:43.879Z,95.39
2023-01-17T07:43:15.877Z,95.35
2023-01-17T07:45:50.822Z,95.49
2023-01-17T07:48:24.920Z,95.67
2023-01-17T07:50:58.507Z,95.47
2023-01-17T07:53:32.702Z,95.38
2023-01-17T07:56:06.030Z,95.27
2023-01-17T07:58:38.302Z,95.39
2023-01-17T08:01:16.485Z,95.28
2023-01-17T08:03:51.238Z,95.35
2023-01-17T08:06:25.078Z,95.33
2023-01-17T08:08:59.593Z,95.00
2023-01-17T08:11:31.514Z,94.92
2023-01-17T08:14:03.464Z,94.84
2023-01-17T08:16:35.734Z,94.69
2023-01-17T08:19:07.641Z,94.75
2023-01-17T08:21:39.471Z,94.73
2023-01-17T08:24:14.804Z,95.51
2023-01-17T08:26:46.769Z,96.22
2023-01-17T08:29:18.987Z,95.75
2023-01-17T08:31:51.221Z,96.15
2023-01-17T08:34:23.879Z,93.97
2023-01-17T08:36:56.294Z,89.90
2023-01-17T08:39:28.972Z,87.47
2023-01-17T08:42:00.975Z,85.11
2023-01-17T08:44:33.277Z,85.34
2023-01-17T08:47:05.376Z,84.83
2023-01-17T08:49:37.484Z,83.88
2023-01-17T08:52:09.664Z,79.83
2023-01-17T08:54:41.848Z,80.94
2023-01-17T08:57:13.742Z,80.34
2023-01-17T08:59:46.016Z,80.96
2023-01-17T09:02:18.887Z,80.82
2023-01-17T09:04:51.961Z,81.21
2023-01-17T09:07:24.483Z,80.29
2023-01-17T09:09:56.637Z,80.18
2023-01-17T09:12:36.863Z,80.85
2023-01-17T09:15:10.206Z,81.46
2023-01-17T09:17:44.943Z,81.70
2023-01-17T09:20:17.476Z,82.04
2023-01-17T09:22:49.938Z,81.58
2023-01-17T09:25:22.403Z,81.46
2023-01-17T09:27:54.514Z,82.15
2023-01-17T09:30:26.911Z,82.59
2023-01-17T09:32:58.894Z,82.91
2023-01-17T09:35:31.058Z,83.00
2023-01-17T09:38:03.247Z,82.99
2023-01-17T09:40:37.200Z,83.17
2023-01-17T09:43:08.637Z,83.60
2023-01-17T09:45:41.644Z,83.28
2023-01-17T09:48:22.243Z,83.45
2023-01-17T09:50:58.574Z,83.42
2023-01-17T09:53:32.704Z,83.42
2023-01-17T09:56:04.567Z,83.93
2023-01-17T09:58:41.945Z,84.15
2023-01-17T10:01:18.718Z,84.23
2023-01-17T10:04:03.403Z,84.36
2023-01-17T10:06:46.604Z,84.36
2023-01-17T10:09:30.130Z,84.43
2023-01-17T10:12:15.096Z,84.72
2023-01-17T10:15:03.201Z,84.84
2023-01-17T10:17:45.256Z,84.60
2023-01-17T10:20:34.336Z,85.14
2023-01-17T10:23:18.193Z,85.15
2023-01-17T10:25:52.505Z,85.15
2023-01-17T10:28:29.304Z,85.09
2023-01-17T10:31:04.345Z,84.93
2023-01-17T10:33:41.070Z,85.08
2023-01-17T10:36:16.791Z,84.64
2023-01-17T10:38:52.145Z,84.50
2023-01-17T10:41:28.799Z,84.85
2023-01-17T10:44:05.966Z,84.98
2023-01-17T10:46:46.129Z,84.72
2023-01-17T10:49:21.830Z,84.39
2023-01-17T10:52:05.446Z,84.01
2023-01-17T10:54:49.839Z,84.33
2023-01-17T10:57:23.712Z,83.99
2023-01-17T10:59:56.991Z,84.11
2023-01-17T11:02:32.119Z,83.65
2023-01-17T11:05:12.756Z,83.82
2023-01-17T11:07:59.758Z,83.69
2023-01-17T11:10:41.099Z,83.63
2023-01-17T11:13:29.947Z,83.80
2023-01-17T11:16:04.055Z,83.48
2023-01-17T11:18:39.043Z,83.63
2023-01-17T11:21:15.088Z,83.87
2023-01-17T11:23:48.277Z,84.05
2023-01-17T11:26:27.587Z,84.01
2023-01-17T11:29:17.390Z,83.82
2023-01-17T11:31:49.724Z,83.65
2023-01-17T11:34:25.545Z,83.57
2023-01-17T11:37:19.876Z,84.17
2023-01-17T11:39:51.732Z,83.98
2023-01-17T11:42:37.708Z,84.07
2023-01-17T11:45:27.547Z,83.75
2023-01-17T11:48:14.174Z,83.86
2023-01-17T11:50:48.257Z,84.12
2023-01-17T11:53:23.731Z,83.31
2023-01-17T11:56:05.851Z,83.71
2023-01-17T11:58:40.183Z,83.85
2023-01-17T12:01:27.165Z,83.89
2023-01-17T12:04:20.409Z,83.86
2023-01-17T12:06:59.373Z,83.86
2023-01-17T12:09:37.537Z,83.92
2023-01-17T12:12:33.485Z,84.12
2023-01-17T12:15:12.932Z,84.21
2023-01-17T12:17:56.961Z,84.09
2023-01-17T12:20:33.019Z,84.17
2023-01-17T12:23:18.913Z,83.90
2023-01-17T12:26:00.588Z,83.80
2023-01-17T12:29:02.544Z,83.69
2023-01-17T12:31:38.140Z,83.77
2023-01-17T12:34:22.866Z,83.92
2023-01-17T12:36:58.125Z,84.00
2023-01-17T12:39:38.584Z,83.89
2023-01-17T12:42:14.266Z,83.84
2023-01-17T12:44:54.228Z,83.73
2023-01-17T12:47:26.419Z,83.86
2023-01-17T12:50:06.432Z,83.82
2023-01-17T12:52:49.040Z,83.82
2023-01-17T12:55:23.640Z,84.20
2023-01-17T12:57:59.935Z,84.05
2023-01-17T13:00:32.731Z,83.74
2023-01-17T13:03:15.545Z,83.93
2023-01-17T13:05:51.429Z,84.11
2023-01-17T13:08:28.489Z,83.49
2023-01-17T13:11:03.580Z,83.64
2023-01-17T13:13:35.816Z,83.75
2023-01-17T13:16:12.682Z,83.72
2023-01-17T13:18:48.510Z,83.61
2023-01-17T13:21:30.606Z,83.59
2023-01-17T13:24:17.408Z,83.84
2023-01-17T13:27:01.152Z,83.58
2023-01-17T13:29:41.575Z,83.78
2023-01-17T13:32:23.829Z,83.22
2023-01-17T13:35:15.065Z,83.06
2023-01-17T13:38:03.496Z,83.22
2023-01-17T13:40:45.083Z,83.04
2023-01-17T13:43:23.610Z,83.03
2023-01-17T13:45:57.204Z,82.94
2023-01-17T13:48:34.696Z,82.68
2023-01-17T13:51:06.993Z,82.68
2023-01-17T13:53:56.369Z,82.85
2023-01-17T13:56:39.263Z,82.49
2023-01-17T13:59:30.759Z,82.49
2023-01-17T14:02:02.998Z,82.57
2023-01-17T14:05:12.425Z,82.11
2023-01-17T14:07:47.512Z,82.25
2023-01-17T14:10:31.057Z,82.03
2023-01-17T14:13:03.537Z,82.14
2023-01-17T14:15:47.898Z,82.40
2023-01-17T14:18:33.625Z,82.07
2023-01-17T14:21:14.138Z,82.23
2023-01-17T14:23:59.899Z,82.20
2023-01-17T14:26:45.620Z,82.41
2023-01-17T14:29:50.080Z,82.26
2023-01-17T14:32:23.490Z,82.16
2023-01-17T14:34:57.469Z,82.31
2023-01-17T14:37:42.118Z,82.40
2023-01-17T14:40:26.198Z,82.35
2023-01-17T14:43:02.974Z,82.41
2023-01-17T14:45:39.139Z,82.31
2023-01-17T14:48:22.127Z,82.46
2023-01-17T14:50:57.602Z,82.60
2023-01-17T14:53:29.941Z,82.38
2023-01-17T14:56:04.473Z,82.53
2023-01-17T14:58:39.439Z,82.68
2023-01-17T15:01:15.071Z,82.76
2023-01-17T15:03:49.804Z,82.89
2023-01-17T15:06:24.419Z,82.70
2023-01-17T15:08:56.477Z,82.77
2023-01-17T15:11:30.524Z,83.05
2023-01-17T15:14:01.424Z,83.02
2023-01-17T15:16:34.976Z,83.14
2023-01-17T15:19:13.214Z,83.27
2023-01-17T15:21:46.751Z,83.17
2023-01-17T15:24:22.081Z,83.47
2023-01-17T15:26:54.710Z,83.51
2023-01-17T15:29:29.415Z,83.39
2023-01-17T15:32:02.703Z,83.72
2023-01-17T15:34:36.865Z,83.80
2023-01-17T15:37:23.149Z,83.73
2023-01-17T15:39:58.612Z,83.83
2023-01-17T15:42:32.463Z,83.95
2023-01-17T15:45:06.689Z,84.03
2023-01-17T15:47:39.774Z,84.07
2023-01-17T15:50:32.105Z,84.08
2023-01-17T15:53:05.908Z,84.24
2023-01-17T15:55:39.311Z,84.25
2023-01-17T15:58:27.141Z,84.23
2023-01-17T16:00:59.543Z,84.15
2023-01-17T16:03:32.746Z,84.29
2023-01-17T16:06:05.460Z,84.33
2023-01-17T16:08:40.078Z,84.41
2023-01-17T16:11:15.691Z,84.38
2023-01-17T16:13:48.709Z,84.45
2023-01-17T16:16:26.848Z,84.47
2023-01-17T16:19:02.806Z,84.62
2023-01-17T16:21:34.985Z,84.72
2023-01-17T16:24:10.928Z,84.59
2023-01-17T16:26:42.799Z,84.88
2023-01-17T16:29:14.841Z,85.00
2023-01-17T16:31:46.694Z,85.09
2023-01-17T16:34:18.506Z,85.05
2023-01-17T16:36:55.918Z,85.14
2023-01-17T16:39:28.409Z,85.45
2023-01-17T16:42:02.984Z,85.57
2023-01-17T16:44:35.143Z,85.63
2023-01-17T16:47:07.125Z,85.50
2023-01-17T16:49:39.603Z,85.63
2023-01-17T16:52:11.656Z,85.84
2023-01-17T16:54:43.679Z,86.04
2023-01-17T16:57:15.841Z,85.98
2023-01-17T16:59:50.848Z,85.87
2023-01-17T17:02:23.213Z,85.99
2023-01-17T17:04:55.413Z,86.06
2023-01-17T17:07:27.385Z,86.20
2023-01-17T17:09:59.391Z,86.28
2023-01-17T17:12:31.221Z,86.28
2023-01-17T17:15:03.445Z,86.42
2023-01-17T17:17:39.431Z,86.60
2023-01-17T17:20:14.544Z,86.64
2023-01-17T17:22:52.013Z,86.73
2023-01-17T17:25:24.937Z,86.45
2023-01-17T17:27:57.029Z,86.70
2023-01-17T17:30:28.953Z,86.78
2023-01-17T17:33:04.826Z,86.88
2023-01-17T17:35:37.676Z,87.12
2023-01-17T17:38:10.186Z,87.36
2023-01-17T17:40:46.533Z,87.19
2023-01-17T17:43:18.248Z,87.38
2023-01-17T17:45:50.478Z,87.31
2023-01-17T17:48:22.525Z,87.70
2023-01-17T17:50:59.923Z,87.81
2023-01-17T17:53:31.884Z,87.65
2023-01-17T17:56:08.247Z,87.71
2023-01-17T17:58:40.466Z,87.89
2023-01-17T18:01:12.505Z,87.91
2023-01-17T18:03:44.775Z,87.85
2023-01-17T18:06:17.481Z,87.99
2023-01-17T18:08:49.669Z,87.98
2023-01-17T18:11:23.361Z,87.95
2023-01-17T18:13:56.278Z,87.78
2023-01-17T18:16:30.214Z,87.80
2023-01-17T18:19:03.597Z,87.93
2023-01-17T18:21:37.142Z,87.79
2023-01-17T18:24:11.096Z,87.72
2023-01-17T18:26:44.424Z,87.88
2023-01-17T18:29:18.035Z,87.77
2023-01-17T18:31:51.198Z,87.79
2023-01-17T18:34:27.035Z,87.85
2023-01-17T18:36:59.278Z,87.80
2023-01-17T18:39:32.224Z,87.82
2023-01-17T18:42:04.379Z,87.76
2023-01-17T18:44:36.251Z,87.84
2023-01-17T18:47:11.041Z,88.09
2023-01-17T18:49:42.863Z,88.46
2023-01-17T18:52:15.306Z,88.42
2023-01-17T18:54:47.339Z,88.64
2023-01-17T18:57:19.560Z,88.90
2023-01-17T18:59:51.451Z,88.87
2023-01-17T19:02:23.607Z,88.73
2023-01-17T19:04:55.881Z,88.65
2023-01-17T19:07:29.941Z,88.76
2023-01-17T19:10:02.236Z,88.81
2023-01-17T19:12:34.470Z,88.87
2023-01-17T19:15:07.774Z,88.75
2023-01-17T19:17:39.998Z,88.70
2023-01-17T19:20:14.375Z,88.81
2023-01-17T19:22:46.571Z,88.73
2023-01-17T19:25:18.696Z,88.90
2023-01-17T19:27:50.770Z,88.92
2023-01-17T19:30:23.075Z,89.24
2023-01-17T19:32:56.107Z,89.67
2023-01-17T19:35:28.177Z,89.98
2023-01-17T19:38:00.489Z,89.74
2023-01-17T19:40:32.446Z,89.68
2023-01-17T19:43:04.943Z,89.67
2023-01-17T19:45:36.735Z,89.74
2023-01-17T19:48:09.898Z,90.02
2023-01-17T19:50:41.826Z,90.11
2023-01-17T19:53:13.873Z,90.56
2023-01-17T19:55:47.034Z,90.42
2023-01-17T19:58:19.482Z,90.88
2023-01-17T20:00:52.518Z,90.85
2023-01-17T20:03:25.903Z,91.23
2023-01-17T20:06:01.382Z,91.51
2023-01-17T20:08:33.607Z,91.29
2023-01-17T20:11:06.995Z,91.24
2023-01-17T20:13:40.418Z,91.53
2023-01-17T20:16:13.772Z,91.75
2023-01-17T20:18:46.307Z,91.90
2023-01-17T20:21:19.961Z,92.02
2023-01-17T20:23:53.674Z,92.17
2023-01-17T20:26:31.140Z,92.26
2023-01-17T20:29:04.269Z,92.21
2023-01-17T20:31:38.700Z,92.05
2023-01-17T20:34:12.471Z,92.14
2023-01-17T20:36:44.310Z,92.28
2023-01-17T20:39:17.315Z,92.29
2023-01-17T20:41:51.552Z,91.89
2023-01-17T20:44:23.079Z,91.86
2023-01-17T20:46:55.016Z,91.84
2023-01-17T20:49:27.062Z,91.98
2023-01-17T20:52:00.151Z,92.07
2023-01-17T20:54:32.242Z,92.05
2023-01-17T20:57:04.129Z,91.93
2023-01-17T20:59:36.208Z,91.87
2023-01-17T21:02:11.037Z,91.71
2023-01-17T21:04:43.146Z,91.88
2023-01-17T21:07:15.052Z,92.05
2023-01-17T21:09:47.334Z,91.96
2023-01-17T21:12:19.170Z,92.00
2023-01-17T21:14:51.884Z,91.84
2023-01-17T21:17:23.811Z,92.08
2023-01-17T21:19:55.876Z,92.32
2023-01-17T21:22:27.787Z,92.22
2023-01-17T21:25:00.024Z,92.23
2023-01-17T21:27:31.846Z,92.15
2023-01-17T21:30:04.689Z,92.00
2023-01-17T21:32:36.473Z,92.11
2023-01-17T21:35:09.718Z,92.00
2023-01-17T21:37:42.206Z,91.91
2023-01-17T21:40:17.341Z,92.09
2023-01-17T21:42:49.113Z,92.25
2023-01-17T21:45:21.183Z,92.70
2023-01-17T21:47:53.151Z,92.68
2023-01-17T21:50:33.096Z,92.73
2023-01-17T21:53:05.875Z,92.95
2023-01-17T21:55:55.388Z,92.88
2023-01-17T21:58:45.791Z,93.09
2023-01-17T22:01:18.941Z,93.46
2023-01-17T22:03:52.958Z,93.60
2023-01-17T22:06:26.801Z,93.46
2023-01-17T22:08:59.276Z,93.55
2023-01-17T22:11:31.293Z,93.31
2023-01-17T22:14:04.777Z,93.23
2023-01-17T22:16:37.032Z,93.15
2023-01-17T22:19:08.906Z,93.09
2023-01-17T22:21:40.876Z,92.96
2023-01-17T22:24:13.802Z,92.80
2023-01-17T22:26:45.953Z,92.61
2023-01-17T22:29:19.095Z,92.54
2023-01-17T22:31:51.300Z,92.55
2023-01-17T22:34:23.622Z,92.47
2023-01-17T22:36:55.549Z,92.28
2023-01-17T22:39:27.460Z,92.18
2023-01-17T22:41:59.499Z,92.20
2023-01-17T22:44:31.778Z,92.21
2023-01-17T22:47:03.829Z,92.29
2023-01-17T22:49:35.612Z,92.19
2023-01-17T22:52:07.979Z,92.27
2023-01-17T22:54:39.744Z,92.58
2023-01-17T22:57:11.725Z,92.87
2023-01-17T22:59:43.542Z,93.05
2023-01-17T23:02:16.557Z,93.00
2023-01-17T23:04:49.043Z,93.22
2023-01-17T23:07:20.851Z,93.32
2023-01-17T23:09:53.448Z,93.45
2023-01-17T23:12:25.399Z,93.57
2023-01-17T23:15:15.012Z,93.41
2023-01-17T23:18:04.669Z,93.34
2023-01-17T23:20:36.672Z,93.23
2023-01-17T23:23:08.532Z,93.14
2023-01-17T23:25:40.342Z,93.16
2023-01-17T23:28:12.237Z,93.32
2023-01-17T23:30:44.545Z,93.35
2023-01-17T23:33:17.691Z,93.56
2023-01-17T23:35:49.538Z,93.56
2023-01-17T23:38:29.797Z,93.70
2023-01-17T23:41:24.814Z,93.67
2023-01-17T23:43:55.615Z,93.62
2023-01-17T23:46:30.256Z,93.59
2023-01-17T23:49:02.679Z,93.52
2023-01-17T23:51:34.883Z,93.54
2023-01-17T23:54:07.170Z,93.54
2023-01-17T23:56:39.212Z,93.53
2023-01-17T23:59:11.750Z,93.42
